createdAt,value
2023-04-03T00:01:59.423Z,9.92
2023-04-03T00:05:02.394Z,9.93
2023-04-03T00:08:05.621Z,9.88
2023-04-03T00:11:08.745Z,9.65
2023-04-03T00:14:11.100Z,9.76
2023-04-03T00:17:13.748Z,9.49
2023-04-03T00:20:16.406Z,9.70
2023-04-03T00:23:19.249Z,9.77
2023-04-03T00:26:21.813Z,9.72
2023-04-03T00:29:24.422Z,9.62
2023-04-03T00:32:26.762Z,9.43
2023-04-03T00:35:30.365Z,9.60
2023-04-03T00:38:32.697Z,9.61
2023-04-03T00:41:36.213Z,9.47
2023-04-03T00:44:38.437Z,9.53
2023-04-03T00:47:42.318Z,9.53
2023-04-03T00:50:46.365Z,9.55
2023-04-03T00:53:55.066Z,9.63
2023-04-03T00:56:58.699Z,9.63
2023-04-03T01:00:04.394Z,9.47
2023-04-03T01:03:06.881Z,9.62
2023-04-03T01:06:11.180Z,9.42
2023-04-03T01:09:13.665Z,9.40
2023-04-03T01:12:20.679Z,9.60
2023-04-03T01:15:26.148Z,9.62
2023-04-03T01:18:29.066Z,9.47
2023-04-03T01:21:37.766Z,9.54
2023-04-03T01:24:40.669Z,9.65
2023-04-03T01:27:43.510Z,9.51
2023-04-03T01:31:19.629Z,9.36
2023-04-03T01:34:23.696Z,9.54
2023-04-03T01:37:26.690Z,9.41
2023-04-03T01:40:30.133Z,9.35
2023-04-03T01:43:32.756Z,9.32
2023-04-03T01:46:35.632Z,9.39
2023-04-03T01:49:38.223Z,9.28
2023-04-03T01:52:41.035Z,9.27
2023-04-03T01:55:43.959Z,9.35
2023-04-03T01:58:46.480Z,9.36
2023-04-03T02:01:49.804Z,9.33
2023-04-03T02:04:52.430Z,9.42
2023-04-03T02:07:54.742Z,9.29
2023-04-03T02:10:57.369Z,9.34
2023-04-03T02:13:59.670Z,9.21
2023-04-03T02:17:06.155Z,9.28
2023-04-03T02:20:09.342Z,9.30
2023-04-03T02:23:11.951Z,9.27
2023-04-03T02:26:16.933Z,9.07
2023-04-03T02:29:21.185Z,9.07
2023-04-03T02:32:24.271Z,9.16
2023-04-03T02:35:27.181Z,9.09
2023-04-03T02:38:31.271Z,8.89
2023-04-03T02:41:36.437Z,8.96
2023-04-03T02:44:39.902Z,8.84
2023-04-03T02:47:42.361Z,9.08
2023-04-03T02:50:45.750Z,8.97
2023-04-03T02:53:48.120Z,8.73
2023-04-03T02:56:51.642Z,8.78
2023-04-03T02:59:54.073Z,8.85
2023-04-03T03:02:56.745Z,8.63
2023-04-03T03:06:07.496Z,8.67
2023-04-03T03:09:10.246Z,8.66
2023-04-03T03:12:12.552Z,8.52
2023-04-03T03:15:16.363Z,8.60
2023-04-03T03:18:19.128Z,8.54
2023-04-03T03:21:21.817Z,8.59
2023-04-03T03:24:24.178Z,8.49
2023-04-03T03:27:26.803Z,8.51
2023-04-03T03:30:29.281Z,8.50
2023-04-03T03:33:32.584Z,8.46
2023-04-03T03:36:35.626Z,8.48
2023-04-03T03:39:38.323Z,8.49
2023-04-03T03:42:41.122Z,8.54
2023-04-03T03:45:44.141Z,8.49
2023-04-03T03:48:46.556Z,8.23
2023-04-03T03:51:49.195Z,8.35
2023-04-03T03:54:51.650Z,8.34
2023-04-03T03:57:54.380Z,8.17
2023-04-03T04:00:57.933Z,8.21
2023-04-03T04:04:00.906Z,8.16
2023-04-03T04:07:04.995Z,8.30
2023-04-03T04:10:08.917Z,8.26
2023-04-03T04:13:11.737Z,8.20
2023-04-03T04:16:15.236Z,8.03
2023-04-03T04:19:17.651Z,7.94
2023-04-03T04:22:20.831Z,7.90
2023-04-03T04:25:23.348Z,7.91
2023-04-03T04:28:26.123Z,7.77
2023-04-03T04:31:29.373Z,7.74
2023-04-03T04:34:32.433Z,7.65
2023-04-03T04:37:35.762Z,7.91
2023-04-03T04:40:39.065Z,8.00
2023-04-03T04:43:42.072Z,7.95
2023-04-03T04:46:46.145Z,7.89
2023-04-03T04:49:48.706Z,7.88
2023-04-03T04:52:51.588Z,7.76
2023-04-03T04:55:54.702Z,7.89
2023-04-03T04:58:57.566Z,7.68
2023-04-03T05:02:00.917Z,7.83
2023-04-03T05:05:05.477Z,7.94
2023-04-03T05:08:09.348Z,7.86
2023-04-03T05:11:14.139Z,8.07
2023-04-03T05:14:17.324Z,7.96
2023-04-03T05:17:20.778Z,7.97
2023-04-03T05:20:24.418Z,8.02
2023-04-03T05:23:28.030Z,8.06
2023-04-03T05:26:32.569Z,7.98
2023-04-03T05:29:35.417Z,8.11
2023-04-03T05:32:38.287Z,7.90
2023-04-03T05:35:42.560Z,7.98
2023-04-03T05:38:46.501Z,8.01
2023-04-03T05:41:49.535Z,7.95
2023-04-03T05:44:52.161Z,8.01
2023-04-03T05:47:54.954Z,8.11
2023-04-03T05:50:57.653Z,8.25
2023-04-03T05:54:10.183Z,8.19
2023-04-03T05:57:12.979Z,8.13
2023-04-03T06:00:17.514Z,8.14
2023-04-03T06:03:22.448Z,8.11
2023-04-03T06:06:25.642Z,7.98
2023-04-03T06:09:29.992Z,8.31
2023-04-03T06:12:32.432Z,8.27
2023-04-03T06:15:34.954Z,8.42
2023-04-03T06:18:37.285Z,8.35
2023-04-03T06:21:40.631Z,8.42
2023-04-03T06:24:44.797Z,8.48
2023-04-03T06:27:47.422Z,8.69
2023-04-03T06:30:49.740Z,8.74
2023-04-03T06:33:53.737Z,8.73
2023-04-03T06:36:56.247Z,8.90
2023-04-03T06:39:59.600Z,8.90
2023-04-03T06:43:02.624Z,9.14
2023-04-03T06:46:06.192Z,9.37
2023-04-03T06:49:08.861Z,9.40
2023-04-03T06:52:13.205Z,9.34
2023-04-03T06:55:15.814Z,9.55
2023-04-03T06:58:21.752Z,9.36
2023-04-03T07:01:28.845Z,9.48
2023-04-03T07:04:31.744Z,9.84
2023-04-03T07:07:35.277Z,9.70
2023-04-03T07:10:39.285Z,9.88
2023-04-03T07:13:42.067Z,9.91
2023-04-03T07:16:44.750Z,9.98
2023-04-03T07:19:47.068Z,9.89
2023-04-03T07:22:49.787Z,10.05
2023-04-03T07:25:53.360Z,9.88
2023-04-03T07:28:56.060Z,10.13
2023-04-03T07:31:58.513Z,10.13
2023-04-03T07:35:02.355Z,10.15
2023-04-03T07:38:05.000Z,10.31
2023-04-03T07:41:07.835Z,10.32
2023-04-03T07:44:13.188Z,10.20
2023-04-03T07:47:17.710Z,10.29
2023-04-03T07:50:20.051Z,10.44
2023-04-03T07:53:22.629Z,10.32
2023-04-03T07:56:26.149Z,10.22
2023-04-03T07:59:31.273Z,10.58
2023-04-03T08:02:33.624Z,10.44
2023-04-03T08:05:43.129Z,10.53
2023-04-03T08:08:45.622Z,10.57
2023-04-03T08:11:48.290Z,10.74
2023-04-03T08:14:50.570Z,10.76
2023-04-03T08:17:53.344Z,10.82
2023-04-03T08:20:55.729Z,10.88
2023-04-03T08:23:58.325Z,10.90
2023-04-03T08:27:01.170Z,10.80
2023-04-03T08:30:05.208Z,10.78
2023-04-03T08:33:08.435Z,10.88
2023-04-03T08:36:38.268Z,11.05
2023-04-03T08:39:40.635Z,11.16
2023-04-03T08:43:18.221Z,11.09
2023-04-03T08:46:24.519Z,11.09
2023-04-03T08:49:42.764Z,11.24
2023-04-03T08:52:58.526Z,11.59
2023-04-03T08:56:06.235Z,11.77
2023-04-03T08:59:17.712Z,12.22
2023-04-03T09:02:50.772Z,12.57
2023-04-03T09:06:31.626Z,13.41
2023-04-03T09:09:41.863Z,14.44
2023-04-03T09:13:00.653Z,15.50
2023-04-03T09:16:13.725Z,16.11
2023-04-03T09:19:25.069Z,17.06
2023-04-03T09:22:32.761Z,17.28
2023-04-03T09:25:39.695Z,17.08
2023-04-03T09:28:50.500Z,16.60
2023-04-03T09:32:10.861Z,16.48
2023-04-03T09:35:40.545Z,15.88
2023-04-03T09:39:06.005Z,15.55
2023-04-03T09:42:20.636Z,15.10
2023-04-03T09:45:27.062Z,14.78
2023-04-03T09:48:29.714Z,14.02
2023-04-03T09:51:32.623Z,13.98
2023-04-03T09:54:40.885Z,14.38
2023-04-03T09:57:43.414Z,14.74
2023-04-03T10:00:56.820Z,16.20
2023-04-03T10:04:13.531Z,16.52
2023-04-03T10:07:38.259Z,15.71
2023-04-03T10:10:46.675Z,15.77
2023-04-03T10:14:10.530Z,15.23
2023-04-03T10:17:32.248Z,14.70
2023-04-03T10:24:29.247Z,14.04
2023-04-03T10:27:41.955Z,13.42
2023-04-03T10:31:12.592Z,13.25
2023-04-03T10:34:37.260Z,13.03
2023-04-03T10:37:43.132Z,12.81
2023-04-03T10:41:18.193Z,12.57
2023-04-03T10:44:44.506Z,12.52
2023-04-03T10:47:59.769Z,12.20
2023-04-03T10:51:16.829Z,12.43
2023-04-03T10:54:23.712Z,12.43
2023-04-03T10:57:27.867Z,12.22
2023-04-03T11:00:51.810Z,12.24
2023-04-03T11:03:58.541Z,12.22
2023-04-03T11:07:19.733Z,12.11
2023-04-03T11:10:27.316Z,12.13
2023-04-03T11:13:38.524Z,12.23
2023-04-03T11:16:53.434Z,12.22
2023-04-03T11:20:18.294Z,11.96
2023-04-03T11:23:30.196Z,11.76
2023-04-03T11:26:39.021Z,12.01
2023-04-03T11:29:54.681Z,12.22
2023-04-03T11:33:13.521Z,12.20
2023-04-03T11:36:25.882Z,12.31
2023-04-03T11:39:39.761Z,12.34
2023-04-03T11:42:48.215Z,12.37
2023-04-03T11:46:01.990Z,12.37
2023-04-03T11:49:04.739Z,12.39
2023-04-03T11:52:44.584Z,12.48
2023-04-03T11:55:50.919Z,12.53
2023-04-03T11:59:11.656Z,12.56
2023-04-03T12:02:53.858Z,12.40
2023-04-03T12:06:17.916Z,12.56
2023-04-03T12:09:51.648Z,12.53
2023-04-03T12:13:15.056Z,12.47
2023-04-03T12:16:24.596Z,12.31
2023-04-03T12:19:42.072Z,12.21
2023-04-03T12:23:09.228Z,11.46
2023-04-03T12:26:24.391Z,12.07
2023-04-03T12:29:34.029Z,12.16
2023-04-03T12:33:13.360Z,12.17
2023-04-03T12:36:45.006Z,12.17
2023-04-03T12:40:13.858Z,12.21
2023-04-03T12:43:34.572Z,12.21
2023-04-03T12:46:46.853Z,12.37
2023-04-03T12:49:52.565Z,12.39
2023-04-03T12:53:06.363Z,12.44
2023-04-03T12:56:31.394Z,12.39
2023-04-03T12:59:37.639Z,12.50
2023-04-03T13:02:45.609Z,12.54
2023-04-03T13:05:48.334Z,12.56
2023-04-03T13:08:58.067Z,12.62
2023-04-03T13:12:04.267Z,12.67
2023-04-03T13:15:17.352Z,12.70
2023-04-03T13:18:30.805Z,12.57
2023-04-03T13:21:36.156Z,12.69
2023-04-03T13:24:40.467Z,12.79
2023-04-03T13:27:44.945Z,12.84
2023-04-03T13:31:22.381Z,12.91
2023-04-03T13:34:28.824Z,12.88
2023-04-03T13:37:36.057Z,12.80
2023-04-03T13:40:53.823Z,13.04
2023-04-03T13:44:00.629Z,13.01
2023-04-03T13:47:12.773Z,13.12
2023-04-03T13:50:27.153Z,13.07
2023-04-03T13:53:32.517Z,12.88
2023-04-03T13:56:38.645Z,12.99
2023-04-03T13:59:41.225Z,13.00
2023-04-03T14:02:43.942Z,12.87
2023-04-03T14:05:46.850Z,13.17
2023-04-03T14:08:50.111Z,12.92
2023-04-03T14:12:05.892Z,13.25
2023-04-03T14:15:27.591Z,13.38
2023-04-03T14:18:31.679Z,13.23
2023-04-03T14:21:34.062Z,13.34
2023-04-03T14:24:36.673Z,13.28
2023-04-03T14:27:45.723Z,13.29
2023-04-03T14:30:51.164Z,13.26
2023-04-03T14:33:53.483Z,13.26
2023-04-03T14:36:56.416Z,13.21
2023-04-03T14:40:01.507Z,13.15
2023-04-03T14:43:04.160Z,13.10
2023-04-03T14:46:15.646Z,12.85
2023-04-03T14:49:24.758Z,12.94
2023-04-03T14:52:32.433Z,12.91
2023-04-03T14:55:36.164Z,12.79
2023-04-03T14:58:38.743Z,12.83
2023-04-03T15:01:41.395Z,12.66
2023-04-03T15:04:43.777Z,12.70
2023-04-03T15:07:53.738Z,12.70
2023-04-03T15:11:25.497Z,12.51
2023-04-03T15:14:37.468Z,12.60
2023-04-03T15:17:55.955Z,12.49
2023-04-03T15:21:21.356Z,12.22
2023-04-03T15:24:26.819Z,12.27
2023-04-03T15:27:29.719Z,12.04
2023-04-03T15:31:01.535Z,12.07
2023-04-03T15:34:04.319Z,12.01
2023-04-03T15:37:06.869Z,11.92
2023-04-03T15:40:10.868Z,11.41
2023-04-03T15:43:13.821Z,11.80
2023-04-03T15:46:16.665Z,11.68
2023-04-03T15:49:21.345Z,11.63
2023-04-03T15:52:23.978Z,11.56
2023-04-03T15:55:27.990Z,11.45
2023-04-03T15:58:31.068Z,11.58
2023-04-03T16:01:35.398Z,11.46
2023-04-03T16:04:41.720Z,11.51
2023-04-03T16:07:44.879Z,11.47
2023-04-03T16:10:48.015Z,11.41
2023-04-03T16:13:50.359Z,11.32
2023-04-03T16:16:53.004Z,11.36
2023-04-03T16:19:56.817Z,11.32
2023-04-03T16:23:00.783Z,10.98
2023-04-03T16:26:03.090Z,11.06
2023-04-03T16:29:05.774Z,10.99
2023-04-03T16:32:08.461Z,10.93
2023-04-03T16:35:12.009Z,10.86
2023-04-03T16:38:14.804Z,10.70
2023-04-03T16:41:17.440Z,10.63
2023-04-03T16:44:19.977Z,10.48
2023-04-03T16:47:22.582Z,10.54
2023-04-03T16:50:24.935Z,10.48
2023-04-03T16:53:28.354Z,10.38
2023-04-03T16:56:30.728Z,10.11
2023-04-03T16:59:33.435Z,10.21
2023-04-03T17:02:35.798Z,10.18
2023-04-03T17:05:38.799Z,9.93
2023-04-03T17:08:45.547Z,9.78
2023-04-03T17:12:07.507Z,9.81
2023-04-03T17:15:11.786Z,9.68
2023-04-03T17:18:14.918Z,9.55
2023-04-03T17:21:18.059Z,9.22
2023-04-03T17:24:20.884Z,9.15
2023-04-03T17:27:23.508Z,9.08
2023-04-03T17:30:26.123Z,9.16
2023-04-03T17:33:31.236Z,8.89
2023-04-03T17:36:34.648Z,8.89
2023-04-03T17:39:37.035Z,8.89
2023-04-03T17:42:39.682Z,8.81
2023-04-03T17:45:42.323Z,8.84
2023-04-03T17:48:45.140Z,8.78
2023-04-03T17:51:47.497Z,8.56
2023-04-03T17:54:50.286Z,8.68
2023-04-03T17:57:52.609Z,8.63
2023-04-03T18:00:56.295Z,8.52
2023-04-03T18:04:01.985Z,8.56
2023-04-03T18:07:07.709Z,8.54
2023-04-03T18:10:10.777Z,8.51
2023-04-03T18:13:16.171Z,8.52
2023-04-03T18:16:19.854Z,8.32
2023-04-03T18:19:23.992Z,8.45
2023-04-03T18:22:27.236Z,8.24
2023-04-03T18:28:42.971Z,8.28
2023-04-03T18:31:49.929Z,8.07
2023-04-03T18:34:52.708Z,8.23
2023-04-03T18:37:55.020Z,8.00
2023-04-03T18:40:57.790Z,8.04
2023-04-03T18:44:02.236Z,7.82
2023-04-03T18:47:05.609Z,7.96
2023-04-03T18:50:08.595Z,7.70
2023-04-03T18:53:11.556Z,7.62
2023-04-03T18:56:14.073Z,7.82
2023-04-03T18:59:16.777Z,7.70
2023-04-03T19:02:22.077Z,7.59
2023-04-03T19:05:27.180Z,7.48
2023-04-03T19:08:29.738Z,7.51
2023-04-03T19:11:32.997Z,7.40
2023-04-03T19:14:35.341Z,7.15
2023-04-03T19:17:38.294Z,7.24
2023-04-03T19:20:40.723Z,7.01
2023-04-03T19:23:45.038Z,7.12
2023-04-03T19:26:47.327Z,7.01
2023-04-03T19:29:50.365Z,7.04
2023-04-03T19:32:52.898Z,6.93
2023-04-03T19:35:55.681Z,6.94
2023-04-03T19:38:57.984Z,6.70
2023-04-03T19:42:02.364Z,6.67
2023-04-03T19:45:04.772Z,6.70
2023-04-03T19:48:08.369Z,6.66
2023-04-03T19:51:10.759Z,6.58
2023-04-03T19:54:13.557Z,6.35
2023-04-03T19:57:15.942Z,6.39
2023-04-03T20:00:19.094Z,6.36
2023-04-03T20:03:21.825Z,6.23
2023-04-03T20:06:24.291Z,6.09
2023-04-03T20:09:27.326Z,6.29
2023-04-03T20:12:32.338Z,6.26
2023-04-03T20:15:40.476Z,6.06
2023-04-03T20:18:42.880Z,5.99
2023-04-03T20:21:45.601Z,6.11
2023-04-03T20:24:47.964Z,5.88
2023-04-03T20:27:50.642Z,5.91
2023-04-03T20:30:55.131Z,6.01
2023-04-03T20:33:57.987Z,6.06
2023-04-03T20:37:00.392Z,5.83
2023-04-03T20:40:04.096Z,6.08
2023-04-03T20:43:07.321Z,6.09
2023-04-03T20:46:11.036Z,5.92
2023-04-03T20:49:13.791Z,6.08
2023-04-03T20:52:16.623Z,6.10
2023-04-03T20:55:18.937Z,6.06
2023-04-03T20:58:21.539Z,5.95
2023-04-03T21:01:24.571Z,6.05
2023-04-03T21:04:53.940Z,5.92
2023-04-03T21:08:36.082Z,6.10
2023-04-03T21:12:16.481Z,6.04
2023-04-03T21:15:47.017Z,6.14
2023-04-03T21:19:01.983Z,6.08
2023-04-03T21:22:04.619Z,5.99
2023-04-03T21:25:08.962Z,5.82
2023-04-03T21:28:11.414Z,5.67
2023-04-03T21:31:15.275Z,5.76
2023-04-03T21:34:18.813Z,5.69
2023-04-03T21:37:21.716Z,5.75
2023-04-03T21:40:24.577Z,5.75
2023-04-03T21:43:27.985Z,5.72
2023-04-03T21:46:30.664Z,5.65
2023-04-03T21:49:33.891Z,5.53
2023-04-03T21:52:36.206Z,5.47
2023-04-03T21:55:38.807Z,5.66
2023-04-03T21:58:41.385Z,5.67
2023-04-03T22:01:44.562Z,5.71
2023-04-03T22:04:47.679Z,5.65
2023-04-03T22:07:50.796Z,5.73
2023-04-03T22:11:03.929Z,5.78
2023-04-03T22:14:06.317Z,5.77
2023-04-03T22:17:08.951Z,5.77
2023-04-03T22:20:11.370Z,5.62
2023-04-03T22:23:14.006Z,5.80
2023-04-03T22:26:16.537Z,5.90
2023-04-03T22:29:19.188Z,5.73
2023-04-03T22:32:21.502Z,5.76
2023-04-03T22:35:24.243Z,5.74
2023-04-03T22:38:26.736Z,5.56
2023-04-03T22:41:29.343Z,5.62
2023-04-03T22:44:36.267Z,5.47
2023-04-03T22:47:39.437Z,5.35
2023-04-03T22:50:42.066Z,5.25
2023-04-03T22:53:44.976Z,5.17
2023-04-03T22:56:47.416Z,5.21
2023-04-03T22:59:49.975Z,5.38
2023-04-03T23:02:53.106Z,5.25
2023-04-03T23:05:56.245Z,5.20
2023-04-03T23:08:58.769Z,4.92
2023-04-03T23:12:01.619Z,5.14
2023-04-03T23:15:05.315Z,4.98
2023-04-03T23:18:07.922Z,4.97
2023-04-03T23:21:10.465Z,4.94
2023-04-03T23:24:13.119Z,4.96
2023-04-03T23:27:15.803Z,4.84
2023-04-03T23:30:19.582Z,4.94
2023-04-03T23:33:21.858Z,4.84
2023-04-03T23:36:24.482Z,5.03
2023-04-03T23:39:27.650Z,5.04
2023-04-03T23:42:30.280Z,4.86
2023-04-03T23:45:32.785Z,5.04
2023-04-03T23:48:35.425Z,4.96
2023-04-03T23:51:37.997Z,5.04
2023-04-03T23:54:40.726Z,5.09
2023-04-03T23:57:43.107Z,4.98
